createdAt,value
2023-11-01T00:02:07.958Z,98131.91
2023-11-01T00:04:34.881Z,98131.13
2023-11-01T00:07:01.674Z,98129.53
2023-11-01T00:09:28.648Z,98135.78
2023-11-01T00:11:55.836Z,98129.88
2023-11-01T00:14:22.969Z,98126.50
2023-11-01T00:16:50.154Z,98130.97
2023-11-01T00:19:17.459Z,98139.75
2023-11-01T00:21:44.410Z,98135.94
2023-11-01T00:24:11.375Z,98140.06
2023-11-01T00:26:38.206Z,98145.81
2023-11-01T00:29:05.321Z,98144.56
2023-11-01T00:31:32.209Z,98131.31
2023-11-01T00:33:59.630Z,98135.75
2023-11-01T00:36:26.752Z,98147.09
2023-11-01T00:38:53.541Z,98131.94
2023-11-01T00:41:20.418Z,98135.63
2023-11-01T00:43:47.249Z,98129.38
2023-11-01T00:46:14.137Z,98140.72
2023-11-01T00:48:41.035Z,98127.78
2023-11-01T00:51:07.978Z,98123.28
2023-11-01T00:53:35.254Z,98119.28
2023-11-01T00:56:02.167Z,98124.72
2023-11-01T00:58:29.242Z,98120.53
2023-11-01T01:00:56.930Z,98113.53
2023-11-01T01:03:24.041Z,98114.00
2023-11-01T01:05:50.985Z,98114.47
2023-11-01T01:08:17.823Z,98114.78
2023-11-01T01:10:44.698Z,98119.56
2023-11-01T01:13:11.528Z,98112.22
2023-11-01T01:15:38.387Z,98109.81
2023-11-01T01:18:05.504Z,98108.56
2023-11-01T01:20:35.080Z,98103.91
2023-11-01T01:23:02.253Z,98102.13
2023-11-01T01:25:29.037Z,98106.44
2023-11-01T01:27:55.831Z,98094.63
2023-11-01T01:30:22.682Z,98092.09
2023-11-01T01:32:49.542Z,98094.97
2023-11-01T01:35:17.435Z,98092.91
2023-11-01T01:37:44.354Z,98092.91
2023-11-01T01:40:11.942Z,98091.66
2023-11-01T01:42:38.751Z,98084.63
2023-11-01T01:45:06.452Z,98076.00
2023-11-01T01:47:34.576Z,98065.13
2023-11-01T01:50:02.548Z,98073.59
2023-11-01T01:52:31.582Z,98067.53
2023-11-01T01:54:58.767Z,98063.69
2023-11-01T01:57:26.354Z,98065.28
2023-11-01T01:59:53.985Z,98064.50
2023-11-01T02:02:22.090Z,98068.00
2023-11-01T02:04:51.057Z,98054.75
2023-11-01T02:07:18.011Z,98052.81
2023-11-01T02:09:44.962Z,98051.22
2023-11-01T02:12:12.025Z,98059.06
2023-11-01T02:14:38.844Z,98045.31
2023-11-01T02:17:08.404Z,98047.69
2023-11-01T02:19:35.344Z,98046.56
2023-11-01T02:22:02.207Z,98050.88
2023-11-01T02:24:29.801Z,98051.22
2023-11-01T02:26:56.684Z,98047.22
2023-11-01T02:29:23.811Z,98043.72
2023-11-01T02:31:51.633Z,98039.06
2023-11-01T02:34:19.086Z,98030.44
2023-11-01T02:36:46.196Z,98037.34
2023-11-01T02:39:13.047Z,98036.69
2023-11-01T02:41:40.404Z,98032.38
2023-11-01T02:44:09.634Z,98034.78
2023-11-01T02:46:36.577Z,98025.84
2023-11-01T02:49:04.993Z,98023.47
2023-11-01T02:51:32.471Z,98031.44
2023-11-01T02:53:59.378Z,98030.97
2023-11-01T02:56:26.335Z,98022.03
2023-11-01T02:58:53.545Z,98025.53
2023-11-01T03:01:22.703Z,98024.41
2023-11-01T03:03:50.602Z,98021.56
2023-11-01T03:06:17.725Z,98012.31
2023-11-01T03:08:47.084Z,98013.09
2023-11-01T03:11:14.354Z,98010.72
2023-11-01T03:13:41.233Z,98014.53
2023-11-01T03:16:08.668Z,98006.41
2023-11-01T03:18:37.195Z,98010.06
2023-11-01T03:21:05.157Z,98020.78
2023-11-01T03:23:32.296Z,98011.38
2023-11-01T03:25:59.720Z,98009.78
2023-11-01T03:28:26.689Z,98011.19
2023-11-01T03:30:53.505Z,98013.78
2023-11-01T03:33:20.501Z,98012.50
2023-11-01T03:35:47.362Z,98010.75
2023-11-01T03:38:14.281Z,98002.78
2023-11-01T03:40:41.161Z,98006.94
2023-11-01T03:43:08.762Z,98002.97
2023-11-01T03:45:35.518Z,98002.00
2023-11-01T03:48:02.397Z,97996.28
2023-11-01T03:50:29.209Z,97995.81
2023-11-01T03:52:56.019Z,97986.84
2023-11-01T03:55:22.787Z,97980.63
2023-11-01T03:57:49.584Z,97982.06
2023-11-01T04:00:22.276Z,97981.91
2023-11-01T04:02:51.259Z,97977.13
2023-11-01T04:05:18.941Z,97967.06
2023-11-01T04:07:46.531Z,97970.44
2023-11-01T04:10:14.554Z,97973.94
2023-11-01T04:12:41.366Z,97969.97
2023-11-01T04:15:12.230Z,97976.03
2023-11-01T04:17:42.685Z,97973.00
2023-11-01T04:20:10.529Z,97975.53
2023-11-01T04:22:40.868Z,97965.16
2023-11-01T04:25:11.645Z,97973.63
2023-11-01T04:27:43.105Z,97966.75
2023-11-01T04:30:15.327Z,97955.59
2023-11-01T04:32:44.554Z,97953.53
2023-11-01T04:35:12.105Z,97957.19
2023-11-01T04:37:40.378Z,97945.09
2023-11-01T04:40:10.263Z,97943.50
2023-11-01T04:42:45.491Z,97948.91
2023-11-01T04:45:13.517Z,97939.97
2023-11-01T04:47:43.657Z,97940.16
2023-11-01T04:50:11.841Z,97932.00
2023-11-01T04:52:44.437Z,97944.44
2023-11-01T04:55:12.265Z,97938.69
2023-11-01T04:57:39.110Z,97938.22
2023-11-01T05:00:10.230Z,97935.03
2023-11-01T05:02:37.687Z,97929.13
2023-11-01T05:05:07.704Z,97925.16
2023-11-01T05:07:35.475Z,97918.75
2023-11-01T05:10:03.982Z,97917.50
2023-11-01T05:12:31.002Z,97917.50
2023-11-01T05:14:58.839Z,97916.38
2023-11-01T05:17:25.985Z,97913.03
2023-11-01T05:19:52.764Z,97917.97
2023-11-01T05:22:19.754Z,97915.44
2023-11-01T05:24:47.984Z,97921.16
2023-11-01T05:27:15.743Z,97917.97
2023-11-01T05:29:42.956Z,97921.78
2023-11-01T05:32:09.935Z,97923.38
2023-11-01T05:34:37.186Z,97913.34
2023-11-01T05:37:04.686Z,97921.16
2023-11-01T05:39:31.587Z,97910.94
2023-11-01T05:41:58.388Z,97911.75
2023-11-01T05:44:25.890Z,97914.78
2023-11-01T05:46:59.029Z,97916.06
2023-11-01T05:49:25.886Z,97908.72
2023-11-01T05:51:52.814Z,97910.94
2023-11-01T05:54:19.617Z,97912.06
2023-11-01T05:56:46.516Z,97911.59
2023-11-01T05:59:13.347Z,97906.81
2023-11-01T06:01:40.269Z,97907.13
2023-11-01T06:04:07.689Z,97906.81
2023-11-01T06:06:34.617Z,97902.81
2023-11-01T06:09:01.443Z,97904.41
2023-11-01T06:11:28.347Z,97899.75
2023-11-01T06:13:55.115Z,97896.78
2023-11-01T06:16:22.139Z,97900.75
2023-11-01T06:18:49.595Z,97907.75
2023-11-01T06:21:16.489Z,97901.22
2023-11-01T06:23:45.643Z,97912.72
2023-11-01T06:26:17.324Z,97907.75
2023-11-01T06:28:44.737Z,97901.09
2023-11-01T06:31:13.904Z,97903.47
2023-11-01T06:33:40.929Z,97907.47
2023-11-01T06:36:09.607Z,97913.34
2023-11-01T06:38:37.262Z,97915.25
2023-11-01T06:41:06.228Z,97921.94
2023-11-01T06:43:33.349Z,97927.22
2023-11-01T06:46:00.181Z,97930.69
2023-11-01T06:48:27.152Z,97929.91
2023-11-01T06:50:54.071Z,97932.44
2023-11-01T06:53:21.306Z,97928.19
2023-11-01T06:55:48.129Z,97918.94
2023-11-01T06:58:14.958Z,97917.66
2023-11-01T07:00:42.269Z,97914.63
2023-11-01T07:03:11.952Z,97909.22
2023-11-01T07:05:39.394Z,97910.47
2023-11-01T07:08:06.370Z,97908.56
2023-11-01T07:10:33.249Z,97907.13
2023-11-01T07:13:00.059Z,97913.84
2023-11-01T07:15:26.870Z,97913.03
2023-11-01T07:17:53.729Z,97909.84
2023-11-01T07:20:21.735Z,97903.28
2023-11-01T07:22:48.702Z,97899.94
2023-11-01T07:25:15.945Z,97906.19
2023-11-01T07:27:42.979Z,97905.19
2023-11-01T07:30:10.338Z,97897.06
2023-11-01T07:32:37.240Z,97889.41
2023-11-01T07:35:05.309Z,97903.75
2023-11-01T07:37:32.319Z,97897.34
2023-11-01T07:40:00.260Z,97886.94
2023-11-01T07:42:27.166Z,97883.09
2023-11-01T07:44:54.141Z,97880.66
2023-11-01T07:47:21.070Z,97878.06
2023-11-01T07:49:47.960Z,97890.16
2023-11-01T07:52:14.817Z,97882.09
2023-11-01T07:54:41.614Z,97891.28
2023-11-01T07:57:08.769Z,97883.56
2023-11-01T07:59:37.984Z,97886.00
2023-11-01T08:02:05.262Z,97879.06
2023-11-01T08:04:32.226Z,97881.94
2023-11-01T08:06:59.344Z,97880.41
2023-11-01T08:09:26.163Z,97876.72
2023-11-01T08:11:53.907Z,97880.81
2023-11-01T08:14:21.066Z,97876.34
2023-11-01T08:16:49.611Z,97879.34
2023-11-01T08:19:16.803Z,97884.16
2023-11-01T08:21:43.764Z,97885.06
2023-11-01T08:24:10.818Z,97892.34
2023-11-01T08:26:37.874Z,97883.53
2023-11-01T08:29:10.598Z,97887.44
2023-11-01T08:31:37.792Z,97887.09
2023-11-01T08:34:04.783Z,97882.56
2023-11-01T08:36:31.692Z,97885.97
2023-11-01T08:38:59.206Z,97887.28
2023-11-01T08:41:25.989Z,97866.75
2023-11-01T08:43:53.868Z,97872.75
2023-11-01T08:46:20.680Z,97874.13
2023-11-01T08:48:48.912Z,97875.91
2023-11-01T08:51:16.164Z,97873.75
2023-11-01T08:53:43.695Z,97877.25
2023-11-01T08:56:10.921Z,97870.63
2023-11-01T08:58:37.748Z,97865.50
2023-11-01T09:01:05.085Z,97864.03
2023-11-01T09:03:32.016Z,97860.28
2023-11-01T09:05:58.990Z,97855.00
2023-11-01T09:08:26.393Z,97861.47
2023-11-01T09:10:54.599Z,97862.59
2023-11-01T09:13:23.678Z,97863.72
2023-11-01T09:15:51.247Z,97854.25
2023-11-01T09:18:18.679Z,97857.19
2023-11-01T09:20:45.815Z,97852.69
2023-11-01T09:23:12.961Z,97843.38
2023-11-01T09:25:39.894Z,97847.84
2023-11-01T09:28:06.756Z,97849.28
2023-11-01T09:30:33.747Z,97855.19
2023-11-01T09:33:00.792Z,97847.34
2023-11-01T09:35:27.785Z,97852.03
2023-11-01T09:37:54.673Z,97847.09
2023-11-01T09:40:22.022Z,97847.25
2023-11-01T09:42:49.351Z,97847.44
2023-11-01T09:45:19.433Z,97853.06
2023-11-01T09:47:47.356Z,97844.97
2023-11-01T09:50:15.065Z,97849.56
2023-11-01T09:52:42.171Z,97850.44
2023-11-01T09:55:09.645Z,97845.47
2023-11-01T09:57:39.038Z,97847.16
2023-11-01T10:00:08.632Z,97850.91
2023-11-01T10:02:36.097Z,97854.03
2023-11-01T10:05:04.442Z,97857.53
2023-11-01T10:07:32.861Z,97855.19
2023-11-01T10:09:59.707Z,97854.53
2023-11-01T10:12:27.311Z,97848.47
2023-11-01T10:14:55.134Z,97854.13
2023-11-01T10:17:22.368Z,97852.88
2023-11-01T10:19:49.561Z,97834.16
2023-11-01T10:22:16.521Z,97836.13
2023-11-01T10:24:46.012Z,97829.06
2023-11-01T10:27:13.167Z,97818.88
2023-11-01T10:29:48.956Z,97828.88
2023-11-01T10:32:16.287Z,97818.09
2023-11-01T10:34:43.297Z,97816.44
2023-11-01T10:37:10.233Z,97812.75
2023-11-01T10:39:41.016Z,97811.22
2023-11-01T10:42:09.630Z,97805.16
2023-11-01T10:44:36.915Z,97806.16
2023-11-01T10:47:05.170Z,97810.66
2023-11-01T10:49:35.013Z,97794.94
2023-11-01T10:52:04.824Z,97791.53
2023-11-01T10:54:33.487Z,97792.22
2023-11-01T10:57:01.691Z,97782.25
2023-11-01T10:59:49.085Z,97777.94
2023-11-01T11:02:23.384Z,97779.38
2023-11-01T11:05:14.378Z,97772.13
2023-11-01T11:07:59.529Z,97759.97
2023-11-01T11:10:33.533Z,97756.38
2023-11-01T11:13:17.436Z,97752.13
2023-11-01T11:15:47.656Z,97749.56
2023-11-01T11:18:27.534Z,97740.00
2023-11-01T11:20:56.996Z,97743.56
2023-11-01T11:23:35.605Z,97741.38
2023-11-01T11:26:06.147Z,97742.22
2023-11-01T11:28:36.159Z,97724.75
2023-11-01T11:31:21.934Z,97718.69
2023-11-01T11:33:49.052Z,97710.88
2023-11-01T11:36:22.180Z,97713.41
2023-11-01T11:38:58.939Z,97711.22
2023-11-01T11:41:39.370Z,97712.22
2023-11-01T11:44:07.492Z,97698.22
2023-11-01T11:46:36.299Z,97692.72
2023-11-01T11:49:06.962Z,97692.69
2023-11-01T11:51:35.667Z,97694.94
2023-11-01T11:54:17.681Z,97691.41
2023-11-01T11:56:45.543Z,97686.41
2023-11-01T11:59:20.753Z,97689.16
2023-11-01T12:01:49.423Z,97682.09
2023-11-01T12:04:17.065Z,97684.47
2023-11-01T12:06:51.169Z,97676.97
2023-11-01T12:09:26.485Z,97669.72
2023-11-01T12:11:59.544Z,97662.81
2023-11-01T12:14:30.702Z,97654.47
2023-11-01T12:17:03.116Z,97651.28
2023-11-01T12:19:30.071Z,97645.66
2023-11-01T12:22:02.098Z,97647.00
2023-11-01T12:24:46.308Z,97649.88
2023-11-01T12:27:15.363Z,97634.63
2023-11-01T12:29:48.276Z,97638.06
2023-11-01T12:32:35.171Z,97634.41
2023-11-01T12:35:07.302Z,97635.81
2023-11-01T12:37:36.755Z,97632.06
2023-11-01T12:40:17.301Z,97631.97
2023-11-01T12:42:51.437Z,97637.09
2023-11-01T12:45:22.095Z,97637.56
2023-11-01T12:47:58.227Z,97630.09
2023-11-01T12:50:37.600Z,97619.41
2023-11-01T12:53:04.632Z,97613.59
2023-11-01T12:55:31.507Z,97608.91
2023-11-01T12:58:00.637Z,97613.97
2023-11-01T13:00:32.449Z,97604.94
2023-11-01T13:03:02.601Z,97610.69
2023-11-01T13:05:29.623Z,97598.56
2023-11-01T13:07:58.576Z,97598.53
2023-11-01T13:10:25.837Z,97594.13
2023-11-01T13:12:53.129Z,97590.03
2023-11-01T13:15:20.587Z,97587.63
2023-11-01T13:17:49.913Z,97592.06
2023-11-01T13:20:17.299Z,97590.31
2023-11-01T13:22:44.324Z,97590.06
2023-11-01T13:25:12.077Z,97577.31
2023-11-01T13:27:38.938Z,97577.84
2023-11-01T13:30:06.717Z,97576.13
2023-11-01T13:32:33.623Z,97571.22
2023-11-01T13:35:01.058Z,97571.88
2023-11-01T13:37:32.527Z,97568.59
2023-11-01T13:39:59.308Z,97560.97
2023-11-01T13:42:26.454Z,97555.06
2023-11-01T13:44:53.944Z,97550.66
2023-11-01T13:47:23.885Z,97545.94
2023-11-01T13:49:52.471Z,97554.03
2023-11-01T13:52:19.556Z,97554.03
2023-11-01T13:54:46.389Z,97560.50
2023-11-01T13:57:13.514Z,97541.63
2023-11-01T13:59:40.324Z,97540.06
2023-11-01T14:02:07.268Z,97546.19
2023-11-01T14:04:34.271Z,97544.19
2023-11-01T14:07:01.508Z,97553.88
2023-11-01T14:09:28.358Z,97555.44
2023-11-01T14:11:55.346Z,97553.13
2023-11-01T14:14:27.090Z,97558.25
2023-11-01T14:16:53.900Z,97552.66
2023-11-01T14:19:20.881Z,97539.31
2023-11-01T14:21:47.835Z,97531.84
2023-11-01T14:24:18.207Z,97540.03
2023-11-01T14:26:46.861Z,97547.75
2023-11-01T14:29:13.750Z,97540.56
2023-11-01T14:31:41.114Z,97538.47
2023-11-01T14:34:08.319Z,97539.94
2023-11-01T14:36:35.216Z,97531.75
2023-11-01T14:39:02.054Z,97535.19
2023-11-01T14:41:29.751Z,97540.25
2023-11-01T14:43:58.522Z,97535.56
2023-11-01T14:46:27.259Z,97530.75
2023-11-01T14:48:54.160Z,97533.75
2023-11-01T14:51:21.269Z,97528.22
2023-11-01T14:53:48.183Z,97529.78
2023-11-01T14:56:17.922Z,97532.81
2023-11-01T14:58:48.027Z,97531.97
2023-11-01T15:01:16.059Z,97530.69
2023-11-01T15:03:44.891Z,97533.00
2023-11-01T15:06:12.216Z,97527.81
2023-11-01T15:08:42.331Z,97528.56
2023-11-01T15:11:11.462Z,97533.59
2023-11-01T15:13:38.917Z,97535.03
2023-11-01T15:16:07.463Z,97524.69
2023-11-01T15:18:34.540Z,97521.81
2023-11-01T15:21:03.630Z,97524.84
2023-11-01T15:23:32.026Z,97522.84
2023-11-01T15:26:01.289Z,97515.00
2023-11-01T15:28:28.441Z,97520.81
2023-11-01T15:30:55.346Z,97519.97
2023-11-01T15:33:22.575Z,97521.44
2023-11-01T15:35:49.490Z,97517.53
2023-11-01T15:38:17.522Z,97515.50
2023-11-01T15:40:44.502Z,97511.91
2023-11-01T15:43:11.528Z,97509.88
2023-11-01T15:45:38.665Z,97515.63
2023-11-01T15:48:07.607Z,97508.81
2023-11-01T15:50:37.662Z,97500.94
2023-11-01T15:53:05.315Z,97505.19
2023-11-01T15:55:32.313Z,97505.59
2023-11-01T15:57:59.117Z,97495.41
2023-11-01T16:00:26.093Z,97503.34
2023-11-01T16:02:53.148Z,97509.88
2023-11-01T16:05:20.261Z,97507.88
2023-11-01T16:07:47.477Z,97503.91
2023-11-01T16:10:14.322Z,97512.09
2023-11-01T16:12:41.205Z,97505.41
2023-11-01T16:15:08.662Z,97512.81
2023-11-01T16:17:35.976Z,97510.34
2023-11-01T16:20:03.480Z,97506.75
2023-11-01T16:22:31.174Z,97506.69
2023-11-01T16:24:58.103Z,97506.59
2023-11-01T16:27:24.911Z,97501.94
2023-11-01T16:29:51.837Z,97491.38
2023-11-01T16:32:18.962Z,97486.19
2023-11-01T16:34:47.075Z,97482.31
2023-11-01T16:37:14.358Z,97476.81
2023-11-01T16:39:45.701Z,97475.94
2023-11-01T16:42:13.950Z,97473.97
2023-11-01T16:44:41.857Z,97471.97
2023-11-01T16:47:08.778Z,97467.94
2023-11-01T16:49:36.150Z,97469.78
2023-11-01T16:52:03.603Z,97469.34
2023-11-01T16:54:30.377Z,97469.69
2023-11-01T16:56:57.255Z,97476.22
2023-11-01T16:59:24.008Z,97468.47
2023-11-01T17:01:50.854Z,97458.72
2023-11-01T17:04:17.834Z,97455.13
2023-11-01T17:06:44.852Z,97454.06
2023-11-01T17:09:11.691Z,97453.91
2023-11-01T17:11:38.680Z,97461.09
2023-11-01T17:14:06.143Z,97464.16
2023-11-01T17:16:33.208Z,97466.88
2023-11-01T17:18:59.992Z,97471.66
2023-11-01T17:21:32.028Z,97475.16
2023-11-01T17:23:59.231Z,97485.25
2023-11-01T17:26:28.980Z,97484.81
2023-11-01T17:28:58.549Z,97484.00
2023-11-01T17:31:44.829Z,97491.72
2023-11-01T17:34:32.241Z,97485.50
2023-11-01T17:37:02.034Z,97479.38
2023-11-01T17:39:38.372Z,97476.88
2023-11-01T17:42:07.035Z,97469.84
2023-11-01T17:44:38.894Z,97460.19
2023-11-01T17:47:18.961Z,97461.69
2023-11-01T17:49:49.006Z,97473.78
2023-11-01T17:52:43.922Z,97483.47
2023-11-01T17:55:19.739Z,97483.63
2023-11-01T17:57:48.088Z,97491.09
2023-11-01T18:00:16.286Z,97502.88
2023-11-01T18:03:16.138Z,97511.94
2023-11-01T18:05:46.699Z,97519.09
2023-11-01T18:08:19.223Z,97521.19
2023-11-01T18:10:53.480Z,97524.47
2023-11-01T18:13:27.006Z,97519.72
2023-11-01T18:15:57.169Z,97517.00
2023-11-01T18:18:56.817Z,97518.13
2023-11-01T18:21:28.267Z,97521.03
2023-11-01T18:23:56.802Z,97525.00
2023-11-01T18:26:25.337Z,97532.19
2023-11-01T18:28:54.852Z,97530.34
2023-11-01T18:31:30.054Z,97526.91
2023-11-01T18:34:01.217Z,97526.22
2023-11-01T18:36:41.105Z,97528.94
2023-11-01T18:39:10.175Z,97530.19
2023-11-01T18:41:40.110Z,97516.13
2023-11-01T18:44:45.013Z,97500.81
2023-11-01T18:47:12.068Z,97487.50
2023-11-01T18:50:07.034Z,97472.75
2023-11-01T18:52:34.537Z,97480.47
2023-11-01T18:55:01.382Z,97478.91
2023-11-01T18:57:34.664Z,97492.47
2023-11-01T19:00:04.258Z,97482.69
2023-11-01T19:02:34.387Z,97495.19
2023-11-01T19:05:09.441Z,97490.06
2023-11-01T19:07:44.538Z,97481.13
2023-11-01T19:10:24.127Z,97485.75
2023-11-01T19:12:55.983Z,97486.56
2023-11-01T19:16:07.520Z,97492.03
2023-11-01T19:18:34.870Z,97499.06
2023-11-01T19:21:01.892Z,97497.38
2023-11-01T19:23:30.027Z,97498.88
2023-11-01T19:25:56.912Z,97496.50
2023-11-01T19:28:23.745Z,97497.19
2023-11-01T19:30:51.233Z,97486.94
2023-11-01T19:33:26.476Z,97496.59
2023-11-01T19:36:07.891Z,97490.00
2023-11-01T19:38:41.460Z,97482.53
2023-11-01T19:41:09.718Z,97478.09
2023-11-01T19:43:36.829Z,97468.97
2023-11-01T19:46:04.449Z,97470.38
2023-11-01T19:48:31.659Z,97466.41
2023-11-01T19:51:00.013Z,97467.00
2023-11-01T19:53:27.647Z,97466.56
2023-11-01T19:55:56.882Z,97471.47
2023-11-01T19:58:23.767Z,97469.00
2023-11-01T20:00:50.815Z,97473.22
2023-11-01T20:03:17.782Z,97477.88
2023-11-01T20:05:45.098Z,97470.41
2023-11-01T20:08:12.005Z,97466.53
2023-11-01T20:10:39.396Z,97464.84
2023-11-01T20:13:06.563Z,97462.50
2023-11-01T20:15:33.476Z,97465.09
2023-11-01T20:18:00.653Z,97456.50
2023-11-01T20:20:28.420Z,97449.72
2023-11-01T20:22:57.708Z,97457.81
2023-11-01T20:25:24.618Z,97459.63
2023-11-01T20:27:51.529Z,97463.38
2023-11-01T20:30:18.695Z,97462.59
2023-11-01T20:32:45.685Z,97455.59
2023-11-01T20:35:12.734Z,97457.94
2023-11-01T20:37:39.871Z,97460.34
2023-11-01T20:40:09.582Z,97464.06
2023-11-01T20:42:37.622Z,97460.91
2023-11-01T20:45:05.171Z,97448.34
2023-11-01T20:47:32.637Z,97439.19
2023-11-01T20:49:59.520Z,97440.00
2023-11-01T20:52:26.455Z,97440.06
2023-11-01T20:54:57.675Z,97431.00
2023-11-01T20:57:26.301Z,97426.63
2023-11-01T20:59:53.208Z,97419.03
2023-11-01T21:02:20.351Z,97420.84
2023-11-01T21:04:47.774Z,97405.59
2023-11-01T21:07:14.639Z,97411.03
2023-11-01T21:09:41.447Z,97411.13
2023-11-01T21:12:11.787Z,97407.94
2023-11-01T21:14:40.403Z,97404.44
2023-11-01T21:17:07.755Z,97403.66
2023-11-01T21:19:35.252Z,97403.41
2023-11-01T21:22:02.468Z,97411.56
2023-11-01T21:24:29.915Z,97409.19
2023-11-01T21:26:57.780Z,97404.91
2023-11-01T21:29:24.666Z,97392.44
2023-11-01T21:31:51.667Z,97396.97
2023-11-01T21:34:20.043Z,97386.91
2023-11-01T21:36:47.400Z,97388.03
2023-11-01T21:39:15.501Z,97389.59
2023-11-01T21:41:45.613Z,97386.53
2023-11-01T21:44:14.321Z,97381.56
2023-11-01T21:46:42.594Z,97366.06
2023-11-01T21:49:23.628Z,97364.81
2023-11-01T21:51:50.562Z,97361.53
2023-11-01T21:54:26.170Z,97355.53
2023-11-01T21:56:54.311Z,97349.00
2023-11-01T21:59:22.431Z,97340.84
2023-11-01T22:01:51.126Z,97334.19
2023-11-01T22:04:22.748Z,97337.69
2023-11-01T22:06:52.377Z,97333.75
2023-11-01T22:09:20.528Z,97331.81
2023-11-01T22:11:51.256Z,97321.41
2023-11-01T22:14:27.760Z,97324.47
2023-11-01T22:16:54.609Z,97315.06
2023-11-01T22:19:38.356Z,97311.22
2023-11-01T22:22:34.641Z,97297.19
2023-11-01T22:25:01.359Z,97293.81
2023-11-01T22:27:44.845Z,97292.47
2023-11-01T22:30:14.786Z,97273.72
2023-11-01T22:32:41.691Z,97277.78
2023-11-01T22:35:09.171Z,97256.06
2023-11-01T22:37:36.598Z,97258.00
2023-11-01T22:40:07.997Z,97254.84
2023-11-01T22:42:34.973Z,97244.56
2023-11-01T22:45:02.974Z,97244.78
2023-11-01T22:47:31.288Z,97246.94
2023-11-01T22:49:59.739Z,97239.72
2023-11-01T22:52:26.615Z,97235.31
2023-11-01T22:54:53.442Z,97235.09
2023-11-01T22:57:20.644Z,97223.69
2023-11-01T22:59:47.629Z,97213.97
2023-11-01T23:02:16.517Z,97199.50
2023-11-01T23:04:43.831Z,97204.59
2023-11-01T23:07:11.448Z,97205.97
2023-11-01T23:09:38.533Z,97205.06
2023-11-01T23:12:06.287Z,97190.00
2023-11-01T23:14:33.237Z,97174.66
2023-11-01T23:17:01.202Z,97184.59
2023-11-01T23:19:28.035Z,97195.13
2023-11-01T23:21:54.985Z,97191.47
2023-11-01T23:24:24.219Z,97191.38
2023-11-01T23:26:55.401Z,97181.88
2023-11-01T23:29:32.552Z,97182.66
2023-11-01T23:32:01.375Z,97168.19
2023-11-01T23:34:40.912Z,97171.59
2023-11-01T23:37:34.199Z,97161.88
2023-11-01T23:40:07.792Z,97156.91
2023-11-01T23:42:35.152Z,97151.59
2023-11-01T23:45:33.661Z,97146.28
2023-11-01T23:48:08.461Z,97137.25
2023-11-01T23:50:40.168Z,97129.81
2023-11-01T23:53:09.372Z,97123.69
2023-11-01T23:55:40.176Z,97117.03
2023-11-01T23:58:10.263Z,97101.09
